sensor_id;sensor_type;location;lat;lon;timestamp;P1;durP1;ratioP1;P2;durP2;ratioP2
75012;SDS011;63567;49.956;20.130;2023-04-24T00:00:32;5.47;;;3.87;;
75012;SDS011;63567;49.956;20.130;2023-04-24T00:02:57;6.47;;;4.28;;
75012;SDS011;63567;49.956;20.130;2023-04-24T00:05:23;5.30;;;3.85;;
75012;SDS011;63567;49.956;20.130;2023-04-24T00:07:49;5.82;;;4.05;;
75012;SDS011;63567;49.956;20.130;2023-04-24T00:10:17;4.88;;;3.78;;
75012;SDS011;63567;49.956;20.130;2023-04-24T00:12:43;5.68;;;4.18;;
75012;SDS011;63567;49.956;20.130;2023-04-24T00:15:08;4.80;;;3.75;;
75012;SDS011;63567;49.956;20.130;2023-04-24T00:17:34;6.22;;;4.00;;
75012;SDS011;63567;49.956;20.130;2023-04-24T00:20:00;6.00;;;3.90;;
75012;SDS011;63567;49.956;20.130;2023-04-24T00:22:27;5.03;;;3.85;;
75012;SDS011;63567;49.956;20.130;2023-04-24T00:24:53;5.93;;;4.18;;
75012;SDS011;63567;49.956;20.130;2023-04-24T00:27:18;7.07;;;3.95;;
75012;SDS011;63567;49.956;20.130;2023-04-24T00:29:44;5.38;;;4.13;;
75012;SDS011;63567;49.956;20.130;2023-04-24T00:32:09;5.32;;;3.90;;
75012;SDS011;63567;49.956;20.130;2023-04-24T00:34:34;5.60;;;4.10;;
75012;SDS011;63567;49.956;20.130;2023-04-24T00:37:00;5.43;;;3.95;;
75012;SDS011;63567;49.956;20.130;2023-04-24T00:39:26;5.95;;;4.15;;
75012;SDS011;63567;49.956;20.130;2023-04-24T00:41:51;5.40;;;3.45;;
75012;SDS011;63567;49.956;20.130;2023-04-24T00:44:18;5.63;;;4.05;;
75012;SDS011;63567;49.956;20.130;2023-04-24T00:46:43;5.90;;;3.80;;
75012;SDS011;63567;49.956;20.130;2023-04-24T00:49:08;4.80;;;3.97;;
75012;SDS011;63567;49.956;20.130;2023-04-24T00:51:34;5.68;;;3.83;;
75012;SDS011;63567;49.956;20.130;2023-04-24T00:54:00;5.07;;;4.13;;
75012;SDS011;63567;49.956;20.130;2023-04-24T00:56:26;5.45;;;3.92;;
75012;SDS011;63567;49.956;20.130;2023-04-24T00:58:52;4.93;;;3.53;;
75012;SDS011;63567;49.956;20.130;2023-04-24T01:01:19;5.45;;;3.92;;
75012;SDS011;63567;49.956;20.130;2023-04-24T01:03:46;6.05;;;4.30;;
75012;SDS011;63567;49.956;20.130;2023-04-24T01:06:12;6.50;;;4.05;;
75012;SDS011;63567;49.956;20.130;2023-04-24T01:08:38;5.38;;;4.07;;
75012;SDS011;63567;49.956;20.130;2023-04-24T01:11:04;6.07;;;4.25;;
75012;SDS011;63567;49.956;20.130;2023-04-24T01:13:31;6.72;;;4.22;;
75012;SDS011;63567;49.956;20.130;2023-04-24T01:15:57;6.15;;;4.35;;
75012;SDS011;63567;49.956;20.130;2023-04-24T01:18:22;6.55;;;3.83;;
75012;SDS011;63567;49.956;20.130;2023-04-24T01:20:48;5.18;;;4.32;;
75012;SDS011;63567;49.956;20.130;2023-04-24T01:23:18;6.38;;;4.22;;
75012;SDS011;63567;49.956;20.130;2023-04-24T01:25:43;5.80;;;4.55;;
75012;SDS011;63567;49.956;20.130;2023-04-24T01:28:09;5.10;;;4.13;;
75012;SDS011;63567;49.956;20.130;2023-04-24T01:30:35;4.95;;;3.97;;
75012;SDS011;63567;49.956;20.130;2023-04-24T01:33:00;5.30;;;3.95;;
75012;SDS011;63567;49.956;20.130;2023-04-24T01:35:26;5.13;;;3.63;;
75012;SDS011;63567;49.956;20.130;2023-04-24T01:37:52;4.75;;;3.88;;
75012;SDS011;63567;49.956;20.130;2023-04-24T01:40:17;5.70;;;4.18;;
75012;SDS011;63567;49.956;20.130;2023-04-24T01:42:43;5.80;;;3.90;;
75012;SDS011;63567;49.956;20.130;2023-04-24T01:45:10;5.15;;;3.80;;
75012;SDS011;63567;49.956;20.130;2023-04-24T01:47:37;5.70;;;3.88;;
75012;SDS011;63567;49.956;20.130;2023-04-24T01:50:03;4.45;;;3.83;;
75012;SDS011;63567;49.956;20.130;2023-04-24T01:52:29;4.50;;;3.75;;
75012;SDS011;63567;49.956;20.130;2023-04-24T01:54:59;4.85;;;3.80;;
75012;SDS011;63567;49.956;20.130;2023-04-24T01:57:25;4.72;;;4.22;;
75012;SDS011;63567;49.956;20.130;2023-04-24T01:59:51;5.63;;;3.63;;
75012;SDS011;63567;49.956;20.130;2023-04-24T02:02:16;5.50;;;4.10;;
75012;SDS011;63567;49.956;20.130;2023-04-24T02:04:42;5.57;;;3.85;;
75012;SDS011;63567;49.956;20.130;2023-04-24T02:07:07;6.97;;;4.30;;
75012;SDS011;63567;49.956;20.130;2023-04-24T02:09:32;6.45;;;4.13;;
75012;SDS011;63567;49.956;20.130;2023-04-24T02:11:58;5.40;;;4.00;;
75012;SDS011;63567;49.956;20.130;2023-04-24T02:14:23;5.40;;;4.13;;
75012;SDS011;63567;49.956;20.130;2023-04-24T02:16:49;5.95;;;4.22;;
75012;SDS011;63567;49.956;20.130;2023-04-24T02:19:14;4.90;;;3.63;;
75012;SDS011;63567;49.956;20.130;2023-04-24T02:21:40;5.38;;;3.78;;
75012;SDS011;63567;49.956;20.130;2023-04-24T02:24:06;6.65;;;4.20;;
75012;SDS011;63567;49.956;20.130;2023-04-24T02:26:31;5.10;;;3.77;;
75012;SDS011;63567;49.956;20.130;2023-04-24T02:28:57;5.40;;;3.77;;
75012;SDS011;63567;49.956;20.130;2023-04-24T02:31:22;6.05;;;4.00;;
75012;SDS011;63567;49.956;20.130;2023-04-24T02:33:48;5.55;;;4.00;;
75012;SDS011;63567;49.956;20.130;2023-04-24T02:36:13;5.63;;;4.00;;
75012;SDS011;63567;49.956;20.130;2023-04-24T02:38:39;5.60;;;3.85;;
75012;SDS011;63567;49.956;20.130;2023-04-24T02:41:04;6.38;;;4.32;;
75012;SDS011;63567;49.956;20.130;2023-04-24T02:43:31;5.22;;;3.92;;
75012;SDS011;63567;49.956;20.130;2023-04-24T02:45:57;5.22;;;4.20;;
75012;SDS011;63567;49.956;20.130;2023-04-24T02:48:22;5.77;;;3.80;;
75012;SDS011;63567;49.956;20.130;2023-04-24T02:50:48;4.93;;;3.60;;
75012;SDS011;63567;49.956;20.130;2023-04-24T02:53:14;5.00;;;3.85;;
75012;SDS011;63567;49.956;20.130;2023-04-24T02:55:39;5.65;;;3.55;;
75012;SDS011;63567;49.956;20.130;2023-04-24T02:58:05;5.25;;;3.80;;
75012;SDS011;63567;49.956;20.130;2023-04-24T03:00:30;4.75;;;3.78;;
75012;SDS011;63567;49.956;20.130;2023-04-24T03:02:56;4.93;;;3.83;;
75012;SDS011;63567;49.956;20.130;2023-04-24T03:05:21;5.60;;;3.75;;
75012;SDS011;63567;49.956;20.130;2023-04-24T03:07:47;5.45;;;3.92;;
75012;SDS011;63567;49.956;20.130;2023-04-24T03:10:13;6.32;;;4.00;;
75012;SDS011;63567;49.956;20.130;2023-04-24T03:12:38;5.38;;;3.83;;
75012;SDS011;63567;49.956;20.130;2023-04-24T03:15:04;5.10;;;3.95;;
75012;SDS011;63567;49.956;20.130;2023-04-24T03:17:30;5.80;;;4.03;;
75012;SDS011;63567;49.956;20.130;2023-04-24T03:19:55;6.03;;;4.03;;
75012;SDS011;63567;49.956;20.130;2023-04-24T03:22:20;4.38;;;3.40;;
75012;SDS011;63567;49.956;20.130;2023-04-24T03:24:46;5.23;;;3.90;;
75012;SDS011;63567;49.956;20.130;2023-04-24T03:27:11;5.13;;;4.00;;
75012;SDS011;63567;49.956;20.130;2023-04-24T03:29:36;5.33;;;3.50;;
75012;SDS011;63567;49.956;20.130;2023-04-24T03:32:02;5.00;;;4.10;;
75012;SDS011;63567;49.956;20.130;2023-04-24T03:34:27;4.80;;;3.87;;
75012;SDS011;63567;49.956;20.130;2023-04-24T03:36:53;5.70;;;3.65;;
75012;SDS011;63567;49.956;20.130;2023-04-24T03:39:18;5.85;;;3.90;;
75012;SDS011;63567;49.956;20.130;2023-04-24T03:41:43;5.35;;;3.60;;
75012;SDS011;63567;49.956;20.130;2023-04-24T03:44:09;5.45;;;4.00;;
75012;SDS011;63567;49.956;20.130;2023-04-24T03:46:34;4.80;;;3.58;;
75012;SDS011;63567;49.956;20.130;2023-04-24T03:49:00;4.65;;;3.85;;
75012;SDS011;63567;49.956;20.130;2023-04-24T03:51:25;6.07;;;4.05;;
75012;SDS011;63567;49.956;20.130;2023-04-24T03:53:52;4.85;;;3.45;;
75012;SDS011;63567;49.956;20.130;2023-04-24T03:56:18;6.00;;;4.15;;
75012;SDS011;63567;49.956;20.130;2023-04-24T03:58:43;5.03;;;4.00;;
75012;SDS011;63567;49.956;20.130;2023-04-24T04:01:09;4.93;;;3.80;;
75012;SDS011;63567;49.956;20.130;2023-04-24T04:03:35;4.43;;;3.58;;
75012;SDS011;63567;49.956;20.130;2023-04-24T04:06:00;5.05;;;3.65;;
75012;SDS011;63567;49.956;20.130;2023-04-24T04:08:26;5.63;;;4.00;;
75012;SDS011;63567;49.956;20.130;2023-04-24T04:10:51;4.60;;;3.90;;
75012;SDS011;63567;49.956;20.130;2023-04-24T04:13:16;5.27;;;3.50;;
75012;SDS011;63567;49.956;20.130;2023-04-24T04:15:42;4.77;;;3.67;;
75012;SDS011;63567;49.956;20.130;2023-04-24T04:18:07;5.50;;;3.88;;
75012;SDS011;63567;49.956;20.130;2023-04-24T04:20:33;4.80;;;3.88;;
75012;SDS011;63567;49.956;20.130;2023-04-24T04:22:58;5.53;;;3.97;;
75012;SDS011;63567;49.956;20.130;2023-04-24T04:25:24;4.93;;;3.73;;
75012;SDS011;63567;49.956;20.130;2023-04-24T04:27:52;4.55;;;3.63;;
75012;SDS011;63567;49.956;20.130;2023-04-24T04:30:18;5.85;;;3.78;;
75012;SDS011;63567;49.956;20.130;2023-04-24T04:32:44;4.82;;;3.38;;
75012;SDS011;63567;49.956;20.130;2023-04-24T04:35:09;5.77;;;3.63;;
75012;SDS011;63567;49.956;20.130;2023-04-24T04:37:35;4.93;;;3.65;;
75012;SDS011;63567;49.956;20.130;2023-04-24T04:40:00;3.88;;;3.20;;
75012;SDS011;63567;49.956;20.130;2023-04-24T04:42:31;5.68;;;3.97;;
75012;SDS011;63567;49.956;20.130;2023-04-24T04:44:57;4.53;;;3.35;;
75012;SDS011;63567;49.956;20.130;2023-04-24T04:47:23;5.43;;;3.50;;
75012;SDS011;63567;49.956;20.130;2023-04-24T04:49:48;4.05;;;3.17;;
75012;SDS011;63567;49.956;20.130;2023-04-24T04:52:14;4.70;;;3.47;;
75012;SDS011;63567;49.956;20.130;2023-04-24T04:54:39;5.10;;;3.10;;
75012;SDS011;63567;49.956;20.130;2023-04-24T04:57:05;4.53;;;3.40;;
75012;SDS011;63567;49.956;20.130;2023-04-24T04:59:30;3.90;;;3.22;;
75012;SDS011;63567;49.956;20.130;2023-04-24T05:01:56;4.43;;;3.53;;
75012;SDS011;63567;49.956;20.130;2023-04-24T05:04:21;4.47;;;3.37;;
75012;SDS011;63567;49.956;20.130;2023-04-24T05:06:46;4.73;;;3.50;;
75012;SDS011;63567;49.956;20.130;2023-04-24T05:09:12;4.80;;;3.45;;
75012;SDS011;63567;49.956;20.130;2023-04-24T05:11:37;3.80;;;3.40;;
75012;SDS011;63567;49.956;20.130;2023-04-24T05:14:03;5.03;;;3.40;;
75012;SDS011;63567;49.956;20.130;2023-04-24T05:16:28;6.50;;;3.50;;
75012;SDS011;63567;49.956;20.130;2023-04-24T05:18:54;5.15;;;3.38;;
75012;SDS011;63567;49.956;20.130;2023-04-24T05:21:19;5.38;;;3.42;;
75012;SDS011;63567;49.956;20.130;2023-04-24T05:23:45;4.00;;;3.40;;
75012;SDS011;63567;49.956;20.130;2023-04-24T05:26:10;5.88;;;3.72;;
75012;SDS011;63567;49.956;20.130;2023-04-24T05:28:36;5.40;;;4.27;;
75012;SDS011;63567;49.956;20.130;2023-04-24T05:31:02;4.60;;;3.53;;
75012;SDS011;63567;49.956;20.130;2023-04-24T05:33:28;4.43;;;3.20;;
75012;SDS011;63567;49.956;20.130;2023-04-24T05:35:53;5.87;;;3.53;;
75012;SDS011;63567;49.956;20.130;2023-04-24T05:38:19;4.78;;;3.67;;
75012;SDS011;63567;49.956;20.130;2023-04-24T05:40:45;4.88;;;4.00;;
75012;SDS011;63567;49.956;20.130;2023-04-24T05:43:11;5.05;;;3.58;;
75012;SDS011;63567;49.956;20.130;2023-04-24T05:45:37;6.05;;;4.35;;
75012;SDS011;63567;49.956;20.130;2023-04-24T05:48:03;6.00;;;3.70;;
75012;SDS011;63567;49.956;20.130;2023-04-24T05:50:28;4.88;;;3.83;;
75012;SDS011;63567;49.956;20.130;2023-04-24T05:52:53;5.80;;;3.67;;
75012;SDS011;63567;49.956;20.130;2023-04-24T05:55:19;5.67;;;3.97;;
75012;SDS011;63567;49.956;20.130;2023-04-24T05:57:44;5.03;;;3.60;;
75012;SDS011;63567;49.956;20.130;2023-04-24T06:00:11;4.18;;;3.45;;
75012;SDS011;63567;49.956;20.130;2023-04-24T06:02:37;5.78;;;4.05;;
75012;SDS011;63567;49.956;20.130;2023-04-24T06:05:03;5.05;;;3.85;;
75012;SDS011;63567;49.956;20.130;2023-04-24T06:07:29;6.00;;;3.70;;
75012;SDS011;63567;49.956;20.130;2023-04-24T06:09:55;6.13;;;3.65;;
75012;SDS011;63567;49.956;20.130;2023-04-24T06:12:21;5.07;;;4.20;;
75012;SDS011;63567;49.956;20.130;2023-04-24T06:14:47;4.78;;;4.07;;
75012;SDS011;63567;49.956;20.130;2023-04-24T06:17:12;6.13;;;4.03;;
75012;SDS011;63567;49.956;20.130;2023-04-24T06:19:38;4.78;;;3.35;;
75012;SDS011;63567;49.956;20.130;2023-04-24T06:22:03;5.72;;;3.80;;
75012;SDS011;63567;49.956;20.130;2023-04-24T06:24:29;4.65;;;3.42;;
75012;SDS011;63567;49.956;20.130;2023-04-24T06:26:54;5.20;;;3.40;;
75012;SDS011;63567;49.956;20.130;2023-04-24T06:29:21;5.97;;;3.95;;
75012;SDS011;63567;49.956;20.130;2023-04-24T06:31:47;4.93;;;3.60;;
75012;SDS011;63567;49.956;20.130;2023-04-24T06:34:12;5.03;;;3.70;;
75012;SDS011;63567;49.956;20.130;2023-04-24T06:36:37;4.43;;;3.50;;
75012;SDS011;63567;49.956;20.130;2023-04-24T06:39:03;5.38;;;3.83;;
75012;SDS011;63567;49.956;20.130;2023-04-24T06:41:28;6.38;;;3.95;;
75012;SDS011;63567;49.956;20.130;2023-04-24T06:43:54;4.95;;;3.60;;
75012;SDS011;63567;49.956;20.130;2023-04-24T06:46:20;5.05;;;3.75;;
75012;SDS011;63567;49.956;20.130;2023-04-24T06:48:48;4.82;;;3.55;;
75012;SDS011;63567;49.956;20.130;2023-04-24T06:51:14;4.82;;;3.65;;
75012;SDS011;63567;49.956;20.130;2023-04-24T06:53:39;5.73;;;3.47;;
75012;SDS011;63567;49.956;20.130;2023-04-24T06:56:04;4.45;;;3.92;;
75012;SDS011;63567;49.956;20.130;2023-04-24T06:58:30;4.65;;;3.53;;
75012;SDS011;63567;49.956;20.130;2023-04-24T07:00:55;4.45;;;3.30;;
75012;SDS011;63567;49.956;20.130;2023-04-24T07:03:21;4.10;;;3.47;;
75012;SDS011;63567;49.956;20.130;2023-04-24T07:05:46;6.30;;;4.05;;
75012;SDS011;63567;49.956;20.130;2023-04-24T07:08:13;4.72;;;4.03;;
75012;SDS011;63567;49.956;20.130;2023-04-24T07:10:38;5.97;;;3.92;;
75012;SDS011;63567;49.956;20.130;2023-04-24T07:13:04;4.53;;;3.67;;
75012;SDS011;63567;49.956;20.130;2023-04-24T07:15:29;5.55;;;3.83;;
75012;SDS011;63567;49.956;20.130;2023-04-24T07:17:55;4.47;;;3.60;;
75012;SDS011;63567;49.956;20.130;2023-04-24T07:20:21;4.35;;;3.70;;
75012;SDS011;63567;49.956;20.130;2023-04-24T07:22:46;5.63;;;3.80;;
75012;SDS011;63567;49.956;20.130;2023-04-24T07:25:13;5.38;;;4.00;;
75012;SDS011;63567;49.956;20.130;2023-04-24T07:27:38;5.68;;;3.80;;
75012;SDS011;63567;49.956;20.130;2023-04-24T07:30:04;5.67;;;3.43;;
75012;SDS011;63567;49.956;20.130;2023-04-24T07:32:29;5.00;;;4.03;;
75012;SDS011;63567;49.956;20.130;2023-04-24T07:34:55;5.43;;;4.22;;
75012;SDS011;63567;49.956;20.130;2023-04-24T07:37:20;5.35;;;3.85;;
75012;SDS011;63567;49.956;20.130;2023-04-24T07:39:46;4.88;;;3.88;;
75012;SDS011;63567;49.956;20.130;2023-04-24T07:42:12;4.70;;;3.80;;
75012;SDS011;63567;49.956;20.130;2023-04-24T07:44:37;4.83;;;3.43;;
75012;SDS011;63567;49.956;20.130;2023-04-24T07:47:02;4.43;;;3.80;;
75012;SDS011;63567;49.956;20.130;2023-04-24T07:49:28;5.38;;;3.88;;
75012;SDS011;63567;49.956;20.130;2023-04-24T07:51:53;4.77;;;3.83;;
75012;SDS011;63567;49.956;20.130;2023-04-24T07:54:18;4.47;;;4.07;;
75012;SDS011;63567;49.956;20.130;2023-04-24T07:56:44;4.13;;;3.60;;
75012;SDS011;63567;49.956;20.130;2023-04-24T07:59:10;5.97;;;3.80;;
75012;SDS011;63567;49.956;20.130;2023-04-24T08:01:36;4.20;;;3.75;;
75012;SDS011;63567;49.956;20.130;2023-04-24T08:04:02;5.30;;;3.92;;
75012;SDS011;63567;49.956;20.130;2023-04-24T08:06:27;4.80;;;3.95;;
75012;SDS011;63567;49.956;20.130;2023-04-24T08:08:58;6.05;;;4.00;;
75012;SDS011;63567;49.956;20.130;2023-04-24T08:11:23;4.65;;;3.45;;
75012;SDS011;63567;49.956;20.130;2023-04-24T08:13:49;4.10;;;3.70;;
75012;SDS011;63567;49.956;20.130;2023-04-24T08:16:15;5.40;;;3.87;;
75012;SDS011;63567;49.956;20.130;2023-04-24T08:18:40;4.57;;;3.90;;
75012;SDS011;63567;49.956;20.130;2023-04-24T08:21:06;5.18;;;3.80;;
75012;SDS011;63567;49.956;20.130;2023-04-24T08:23:31;4.80;;;3.83;;
75012;SDS011;63567;49.956;20.130;2023-04-24T08:25:56;4.25;;;3.58;;
75012;SDS011;63567;49.956;20.130;2023-04-24T08:28:22;4.60;;;3.88;;
75012;SDS011;63567;49.956;20.130;2023-04-24T08:30:48;4.15;;;3.75;;
75012;SDS011;63567;49.956;20.130;2023-04-24T08:33:19;4.97;;;3.85;;
75012;SDS011;63567;49.956;20.130;2023-04-24T08:35:44;4.28;;;3.83;;
75012;SDS011;63567;49.956;20.130;2023-04-24T08:38:10;4.93;;;3.78;;
75012;SDS011;63567;49.956;20.130;2023-04-24T08:40:35;4.00;;;3.30;;
75012;SDS011;63567;49.956;20.130;2023-04-24T08:43:01;4.45;;;4.05;;
75012;SDS011;63567;49.956;20.130;2023-04-24T08:45:28;4.07;;;3.67;;
75012;SDS011;63567;49.956;20.130;2023-04-24T08:47:54;4.88;;;3.78;;
75012;SDS011;63567;49.956;20.130;2023-04-24T08:50:21;5.25;;;3.97;;
75012;SDS011;63567;49.956;20.130;2023-04-24T08:52:49;4.53;;;3.72;;
75012;SDS011;63567;49.956;20.130;2023-04-24T08:55:15;5.07;;;3.70;;
75012;SDS011;63567;49.956;20.130;2023-04-24T08:57:43;4.30;;;3.70;;
75012;SDS011;63567;49.956;20.130;2023-04-24T09:00:10;5.57;;;3.90;;
75012;SDS011;63567;49.956;20.130;2023-04-24T09:02:37;4.25;;;3.78;;
75012;SDS011;63567;49.956;20.130;2023-04-24T09:05:06;4.78;;;4.20;;
75012;SDS011;63567;49.956;20.130;2023-04-24T09:07:33;4.22;;;3.83;;
75012;SDS011;63567;49.956;20.130;2023-04-24T09:10:02;4.97;;;3.70;;
75012;SDS011;63567;49.956;20.130;2023-04-24T09:12:27;4.88;;;4.25;;
75012;SDS011;63567;49.956;20.130;2023-04-24T09:14:53;4.73;;;4.23;;
75012;SDS011;63567;49.956;20.130;2023-04-24T09:17:20;4.32;;;3.92;;
75012;SDS011;63567;49.956;20.130;2023-04-24T09:19:47;5.00;;;4.13;;
75012;SDS011;63567;49.956;20.130;2023-04-24T09:22:13;5.57;;;4.47;;
75012;SDS011;63567;49.956;20.130;2023-04-24T09:24:40;4.57;;;4.15;;
75012;SDS011;63567;49.956;20.130;2023-04-24T09:27:05;5.68;;;4.30;;
75012;SDS011;63567;49.956;20.130;2023-04-24T09:29:31;5.63;;;4.20;;
75012;SDS011;63567;49.956;20.130;2023-04-24T09:31:58;9.55;;;8.05;;
75012;SDS011;63567;49.956;20.130;2023-04-24T09:34:27;6.38;;;5.78;;
75012;SDS011;63567;49.956;20.130;2023-04-24T09:36:53;5.43;;;4.72;;
75012;SDS011;63567;49.956;20.130;2023-04-24T09:39:19;5.43;;;4.32;;
75012;SDS011;63567;49.956;20.130;2023-04-24T09:41:52;4.63;;;4.20;;
75012;SDS011;63567;49.956;20.130;2023-04-24T09:44:26;5.15;;;4.53;;
75012;SDS011;63567;49.956;20.130;2023-04-24T09:46:56;7.07;;;4.43;;
75012;SDS011;63567;49.956;20.130;2023-04-24T09:49:23;5.60;;;5.10;;
75012;SDS011;63567;49.956;20.130;2023-04-24T09:51:50;5.13;;;4.63;;
75012;SDS011;63567;49.956;20.130;2023-04-24T09:54:19;5.47;;;4.97;;
75012;SDS011;63567;49.956;20.130;2023-04-24T09:56:47;5.03;;;4.63;;
75012;SDS011;63567;49.956;20.130;2023-04-24T09:59:14;5.47;;;4.97;;
75012;SDS011;63567;49.956;20.130;2023-04-24T10:01:41;5.25;;;4.85;;
75012;SDS011;63567;49.956;20.130;2023-04-24T10:06:43;5.32;;;4.63;;
75012;SDS011;63567;49.956;20.130;2023-04-24T10:09:09;5.10;;;4.65;;
75012;SDS011;63567;49.956;20.130;2023-04-24T10:11:37;6.13;;;5.30;;
75012;SDS011;63567;49.956;20.130;2023-04-24T10:14:06;5.65;;;5.20;;
75012;SDS011;63567;49.956;20.130;2023-04-24T10:16:31;5.93;;;4.90;;
75012;SDS011;63567;49.956;20.130;2023-04-24T10:18:59;5.50;;;5.10;;
75012;SDS011;63567;49.956;20.130;2023-04-24T10:21:25;5.60;;;5.10;;
75012;SDS011;63567;49.956;20.130;2023-04-24T10:23:51;6.00;;;5.50;;
75012;SDS011;63567;49.956;20.130;2023-04-24T10:26:18;6.22;;;5.63;;
75012;SDS011;63567;49.956;20.130;2023-04-24T10:28:47;5.60;;;5.20;;
75012;SDS011;63567;49.956;20.130;2023-04-24T10:31:13;5.80;;;5.25;;
75012;SDS011;63567;49.956;20.130;2023-04-24T10:33:40;5.60;;;5.20;;
75012;SDS011;63567;49.956;20.130;2023-04-24T10:36:07;6.25;;;5.65;;
75012;SDS011;63567;49.956;20.130;2023-04-24T10:38:34;5.53;;;5.03;;
75012;SDS011;63567;49.956;20.130;2023-04-24T10:41:11;5.93;;;5.43;;
75012;SDS011;63567;49.956;20.130;2023-04-24T10:43:44;6.93;;;6.32;;
75012;SDS011;63567;49.956;20.130;2023-04-24T10:46:10;6.20;;;5.70;;
75012;SDS011;63567;49.956;20.130;2023-04-24T10:48:35;6.93;;;6.43;;
75012;SDS011;63567;49.956;20.130;2023-04-24T10:51:10;7.10;;;6.50;;
75012;SDS011;63567;49.956;20.130;2023-04-24T10:53:37;6.32;;;5.93;;
75012;SDS011;63567;49.956;20.130;2023-04-24T11:01:08;6.30;;;5.78;;
75012;SDS011;63567;49.956;20.130;2023-04-24T11:03:34;7.00;;;6.40;;
75012;SDS011;63567;49.956;20.130;2023-04-24T11:06:04;5.85;;;5.35;;
75012;SDS011;63567;49.956;20.130;2023-04-24T11:08:44;5.70;;;5.30;;
75012;SDS011;63567;49.956;20.130;2023-04-24T11:11:14;6.25;;;5.75;;
75012;SDS011;63567;49.956;20.130;2023-04-24T11:18:51;6.78;;;6.18;;
75012;SDS011;63567;49.956;20.130;2023-04-24T11:21:21;8.45;;;7.63;;
75012;SDS011;63567;49.956;20.130;2023-04-24T11:23:47;7.85;;;7.15;;
75012;SDS011;63567;49.956;20.130;2023-04-24T11:26:14;7.85;;;7.15;;
75012;SDS011;63567;49.956;20.130;2023-04-24T11:28:47;7.40;;;6.80;;
75012;SDS011;63567;49.956;20.130;2023-04-24T11:34:13;6.75;;;6.25;;
75012;SDS011;63567;49.956;20.130;2023-04-24T11:36:40;8.18;;;7.57;;
75012;SDS011;63567;49.956;20.130;2023-04-24T11:39:08;7.57;;;7.07;;
75012;SDS011;63567;49.956;20.130;2023-04-24T11:41:35;7.53;;;7.03;;
75012;SDS011;63567;49.956;20.130;2023-04-24T11:44:00;8.20;;;7.50;;
75012;SDS011;63567;49.956;20.130;2023-04-24T11:46:27;7.78;;;7.28;;
75012;SDS011;63567;49.956;20.130;2023-04-24T11:48:53;6.63;;;6.03;;
75012;SDS011;63567;49.956;20.130;2023-04-24T11:51:19;6.73;;;6.23;;
75012;SDS011;63567;49.956;20.130;2023-04-24T11:53:44;7.97;;;7.38;;
75012;SDS011;63567;49.956;20.130;2023-04-24T11:56:10;7.22;;;6.53;;
75012;SDS011;63567;49.956;20.130;2023-04-24T11:58:35;8.60;;;8.00;;
75012;SDS011;63567;49.956;20.130;2023-04-24T12:01:03;8.25;;;7.65;;
75012;SDS011;63567;49.956;20.130;2023-04-24T12:03:29;7.05;;;6.53;;
75012;SDS011;63567;49.956;20.130;2023-04-24T12:06:04;8.27;;;7.75;;
75012;SDS011;63567;49.956;20.130;2023-04-24T12:08:32;7.75;;;7.25;;
75012;SDS011;63567;49.956;20.130;2023-04-24T12:10:59;7.38;;;6.88;;
75012;SDS011;63567;49.956;20.130;2023-04-24T12:13:26;7.63;;;7.03;;
75012;SDS011;63567;49.956;20.130;2023-04-24T12:15:51;7.90;;;7.20;;
75012;SDS011;63567;49.956;20.130;2023-04-24T12:18:17;9.02;;;8.40;;
75012;SDS011;63567;49.956;20.130;2023-04-24T12:20:42;7.35;;;6.65;;
75012;SDS011;63567;49.956;20.130;2023-04-24T12:23:08;7.77;;;7.17;;
75012;SDS011;63567;49.956;20.130;2023-04-24T12:25:33;7.70;;;7.00;;
75012;SDS011;63567;49.956;20.130;2023-04-24T12:30:27;6.85;;;6.35;;
75012;SDS011;63567;49.956;20.130;2023-04-24T12:32:54;7.18;;;6.68;;
75012;SDS011;63567;49.956;20.130;2023-04-24T12:35:20;7.18;;;6.68;;
75012;SDS011;63567;49.956;20.130;2023-04-24T12:37:47;7.35;;;6.75;;
75012;SDS011;63567;49.956;20.130;2023-04-24T12:40:13;9.95;;;9.30;;
75012;SDS011;63567;49.956;20.130;2023-04-24T12:42:43;7.93;;;7.22;;
75012;SDS011;63567;49.956;20.130;2023-04-24T12:45:12;7.28;;;6.68;;
75012;SDS011;63567;49.956;20.130;2023-04-24T12:47:38;10.40;;;9.63;;
75012;SDS011;63567;49.956;20.130;2023-04-24T12:50:05;7.13;;;6.53;;
75012;SDS011;63567;49.956;20.130;2023-04-24T12:52:35;8.05;;;7.35;;
75012;SDS011;63567;49.956;20.130;2023-04-24T12:55:01;7.50;;;6.95;;
75012;SDS011;63567;49.956;20.130;2023-04-24T12:57:30;7.78;;;6.93;;
75012;SDS011;63567;49.956;20.130;2023-04-24T12:59:56;6.88;;;6.25;;
75012;SDS011;63567;49.956;20.130;2023-04-24T13:02:23;6.97;;;6.28;;
75012;SDS011;63567;49.956;20.130;2023-04-24T13:04:54;6.35;;;5.75;;
75012;SDS011;63567;49.956;20.130;2023-04-24T13:07:19;6.20;;;5.70;;
75012;SDS011;63567;49.956;20.130;2023-04-24T13:09:45;6.75;;;6.05;;
75012;SDS011;63567;49.956;20.130;2023-04-24T13:12:11;6.45;;;5.78;;
75012;SDS011;63567;49.956;20.130;2023-04-24T13:14:38;6.93;;;5.53;;
75012;SDS011;63567;49.956;20.130;2023-04-24T13:17:03;6.35;;;5.63;;
75012;SDS011;63567;49.956;20.130;2023-04-24T13:19:29;5.38;;;4.80;;
75012;SDS011;63567;49.956;20.130;2023-04-24T13:21:55;6.43;;;5.82;;
75012;SDS011;63567;49.956;20.130;2023-04-24T13:24:22;6.38;;;5.70;;
75012;SDS011;63567;49.956;20.130;2023-04-24T13:26:52;6.60;;;4.90;;
75012;SDS011;63567;49.956;20.130;2023-04-24T13:29:17;6.25;;;5.13;;
75012;SDS011;63567;49.956;20.130;2023-04-24T13:31:46;5.88;;;5.32;;
75012;SDS011;63567;49.956;20.130;2023-04-24T13:34:12;6.20;;;4.82;;
75012;SDS011;63567;49.956;20.130;2023-04-24T13:36:38;4.93;;;4.35;;
75012;SDS011;63567;49.956;20.130;2023-04-24T13:39:05;4.68;;;4.28;;
75012;SDS011;63567;49.956;20.130;2023-04-24T13:41:32;4.82;;;4.10;;
75012;SDS011;63567;49.956;20.130;2023-04-24T13:43:58;4.72;;;3.80;;
75012;SDS011;63567;49.956;20.130;2023-04-24T13:46:23;3.85;;;3.47;;
75012;SDS011;63567;49.956;20.130;2023-04-24T13:48:49;4.22;;;3.83;;
75012;SDS011;63567;49.956;20.130;2023-04-24T13:51:15;4.60;;;3.90;;
75012;SDS011;63567;49.956;20.130;2023-04-24T13:53:40;4.45;;;3.28;;
75012;SDS011;63567;49.956;20.130;2023-04-24T13:56:06;3.72;;;3.38;;
75012;SDS011;63567;49.956;20.130;2023-04-24T13:58:32;4.55;;;3.45;;
75012;SDS011;63567;49.956;20.130;2023-04-24T14:00:58;4.10;;;3.50;;
75012;SDS011;63567;49.956;20.130;2023-04-24T14:03:23;5.30;;;3.33;;
75012;SDS011;63567;49.956;20.130;2023-04-24T14:05:49;3.65;;;3.35;;
75012;SDS011;63567;49.956;20.130;2023-04-24T14:08:14;4.40;;;3.47;;
75012;SDS011;63567;49.956;20.130;2023-04-24T14:10:40;4.18;;;3.38;;
75012;SDS011;63567;49.956;20.130;2023-04-24T14:13:05;3.78;;;3.45;;
75012;SDS011;63567;49.956;20.130;2023-04-24T14:15:31;3.50;;;3.20;;
75012;SDS011;63567;49.956;20.130;2023-04-24T14:17:57;3.80;;;3.22;;
75012;SDS011;63567;49.956;20.130;2023-04-24T14:20:22;4.05;;;3.40;;
75012;SDS011;63567;49.956;20.130;2023-04-24T14:22:49;4.18;;;3.28;;
75012;SDS011;63567;49.956;20.130;2023-04-24T14:25:16;3.50;;;3.10;;
75012;SDS011;63567;49.956;20.130;2023-04-24T14:27:41;4.85;;;3.13;;
75012;SDS011;63567;49.956;20.130;2023-04-24T14:30:07;3.20;;;2.78;;
75012;SDS011;63567;49.956;20.130;2023-04-24T14:32:34;3.28;;;2.80;;
75012;SDS011;63567;49.956;20.130;2023-04-24T14:35:00;3.92;;;3.47;;
75012;SDS011;63567;49.956;20.130;2023-04-24T14:37:25;3.13;;;2.83;;
75012;SDS011;63567;49.956;20.130;2023-04-24T14:39:52;3.63;;;3.30;;
75012;SDS011;63567;49.956;20.130;2023-04-24T14:42:17;4.03;;;2.90;;
75012;SDS011;63567;49.956;20.130;2023-04-24T14:44:43;3.70;;;2.80;;